עמוד ראשי
METAR-TAF:

METAR-TAF

שדות תעופה :

Şırnak, טורקיה

קו רוחב: 37-21-50N, קו אורך: 42-03-36E, גובה: 621מטר

תצפית מזג אוויר נוכחית

הדו"ח נערך לפני 1 שעות ו 24דקות, בשעה 10:50 UTC
רוח 12קשר מכיוון צפון/צפון-מערב עם משבים עד 24קשר , משתנה בין מערב/צפון-מערב ו צפון-מזרח
טמפרטורת 41 צלסיוס
לחות 10%
לחץ 1003 hPa
ראות 10 קילומטר או יותר
ללא עננים שבסיסם נמוך מ 5000 רגל או קומולונימבוס

METAR: LTCV 251050Z 34012G24KT 300V040 CAVOK 41/04 Q1003

זמן: 15:14 (12:14 UTC)

תחזית

הדו"ח נערך לפני 1 שעות ו 34דקות, בשעה 10:40 UTC
תחזית בתוקף מ 25 ב 12 UTC עד 26 ב 12 UTC
רוח 5קשר מכיוון מערב
ראות 10 קילומטר או יותר
ללא עננים שבסיסם נמוך מ 5000 רגל או קומולונימבוס
זמנית מ -
25 ב 12 UTC עד 25 ב 16 UTC
רוח 15קשר מכיוון צפון עם משבים עד 25קשר
זמנית מ -
25 ב 16 UTC עד 25 ב 18 UTC
רוח 12קשר מכיוון צפון עם משבים עד 22קשר

TAF: LTCV 251040Z 2512/2612 27005KT CAVOK TEMPO 2512/2516 36015G25KT TEMPO 2516/2518 36012G22KT

תצפיות ותחזיות מזג אוויר לגבי יותר מ- 4,000 שדות תעופה ברחבי העולם. דוחות METAR ו- TAF.

התחנות הזמינות מסומנות בנקודות צהובות ואדומות על גבי המפה.

העבר את העכבר לנקודה הצבעונית על מנת לראות את שם התחנה.

לאחר מכן, לחץ כדי לראות את תוכן ואת תחזיות מזג האוויר.

כדי לשנות את המפה: לחץ על הכפתורים הירוקים עם הפלוס השחור כדי להתקרב; על הכפתור הירוק עם המקף כדי להתרחק; או בחיצים הירוקים למפות סמוכות.


METAR-TAF: